createdAt,value
2018-10-19T00:01:43.559Z,44.60
2018-10-19T00:04:17.048Z,45.65
2018-10-19T00:06:50.456Z,47.17
2018-10-19T00:09:23.859Z,45.40
2018-10-19T00:11:57.274Z,45.33
2018-10-19T00:14:30.696Z,46.55
2018-10-19T00:17:04.257Z,45.95
2018-10-19T00:19:37.697Z,45.85
2018-10-19T00:22:11.111Z,45.23
2018-10-19T00:24:44.528Z,44.90
2018-10-19T00:27:17.935Z,44.75
2018-10-19T00:29:51.363Z,47.60
2018-10-19T00:32:24.767Z,46.25
2018-10-19T00:34:58.243Z,47.03
2018-10-19T00:37:31.628Z,46.30
2018-10-19T00:40:05.435Z,46.70
2018-10-19T00:42:38.851Z,45.65
2018-10-19T00:45:12.308Z,45.75
2018-10-19T00:47:45.719Z,47.33
2018-10-19T00:50:19.141Z,46.70
2018-10-19T00:52:52.596Z,47.50
2018-10-19T00:55:26.174Z,45.00
2018-10-19T00:57:59.617Z,46.13
2018-10-19T01:00:33.089Z,46.42
2018-10-19T01:03:06.800Z,46.28
2018-10-19T01:05:41.007Z,45.63
2018-10-19T01:08:14.502Z,46.85
2018-10-19T01:10:48.015Z,46.60
2018-10-19T01:13:21.481Z,47.62
2018-10-19T01:15:54.918Z,49.13
2018-10-19T01:18:28.436Z,47.73
2018-10-19T01:21:01.944Z,47.83
2018-10-19T01:23:35.372Z,47.47
2018-10-19T01:26:08.893Z,46.50
2018-10-19T01:28:42.397Z,47.67
2018-10-19T01:31:15.854Z,47.70
2018-10-19T01:33:49.327Z,46.83
2018-10-19T01:36:27.031Z,48.15
2018-10-19T01:39:00.468Z,48.30
2018-10-19T01:41:33.920Z,48.37
2018-10-19T01:44:08.202Z,47.93
2018-10-19T01:46:48.212Z,47.80
2018-10-19T01:49:21.699Z,46.83
2018-10-19T01:51:55.142Z,48.68
2018-10-19T01:54:28.608Z,45.52
2018-10-19T01:57:02.058Z,46.30
2018-10-19T01:59:35.510Z,47.00
2018-10-19T02:02:08.990Z,47.17
2018-10-19T02:04:42.451Z,46.08
2018-10-19T02:07:15.904Z,45.23
2018-10-19T02:09:49.390Z,48.17
2018-10-19T02:12:22.864Z,47.40
2018-10-19T02:14:57.492Z,47.77
2018-10-19T02:17:30.950Z,47.25
2018-10-19T02:20:04.528Z,46.98
2018-10-19T02:22:38.008Z,45.77
2018-10-19T02:25:11.492Z,46.23
2018-10-19T02:27:44.943Z,47.13
2018-10-19T02:30:18.661Z,48.23
2018-10-19T02:32:52.139Z,47.50
2018-10-19T02:35:25.632Z,45.73
2018-10-19T02:37:59.058Z,46.20
2018-10-19T02:40:32.562Z,48.23
2018-10-19T02:43:06.277Z,47.07
2018-10-19T02:45:42.415Z,46.80
2018-10-19T02:48:15.885Z,47.20
2018-10-19T02:50:49.372Z,46.57
2018-10-19T02:53:22.844Z,46.83
2018-10-19T02:55:56.321Z,46.63
2018-10-19T02:58:29.766Z,47.30
2018-10-19T03:01:03.238Z,48.83
2018-10-19T03:03:36.707Z,48.83
2018-10-19T03:06:10.196Z,48.10
2018-10-19T03:08:43.669Z,46.73
2018-10-19T03:11:17.264Z,46.57
2018-10-19T03:13:50.683Z,47.80
2018-10-19T03:16:24.111Z,46.77
2018-10-19T03:18:57.562Z,47.83
2018-10-19T03:21:32.316Z,48.53
2018-10-19T03:24:05.851Z,47.00
2018-10-19T03:26:39.479Z,46.50
2018-10-19T03:29:13.216Z,46.17
2018-10-19T03:31:46.579Z,46.30
2018-10-19T03:34:20.004Z,46.77
2018-10-19T03:36:53.449Z,46.77
2018-10-19T03:39:27.281Z,46.90
2018-10-19T03:42:01.037Z,45.83
2018-10-19T03:44:34.531Z,48.03
2018-10-19T03:47:08.064Z,47.53
2018-10-19T03:49:41.469Z,46.07
2018-10-19T03:52:14.897Z,47.33
2018-10-19T03:54:48.338Z,46.03
2018-10-19T03:57:21.797Z,45.60
2018-10-19T03:59:55.234Z,47.20
2018-10-19T04:02:28.696Z,46.83
2018-10-19T04:05:02.267Z,47.27
2018-10-19T04:07:35.668Z,46.47
2018-10-19T04:10:09.175Z,47.27
2018-10-19T04:12:42.630Z,48.13
2018-10-19T04:15:16.142Z,47.53
2018-10-19T04:17:49.539Z,47.07
2018-10-19T04:20:23.121Z,40.63
2018-10-19T04:23:01.864Z,43.77
2018-10-19T04:25:37.635Z,46.03
2018-10-19T04:28:12.162Z,46.93
2018-10-19T04:30:45.676Z,46.93
2018-10-19T04:33:19.278Z,47.20
2018-10-19T04:35:52.643Z,46.50
2018-10-19T04:38:26.075Z,46.53
2018-10-19T04:40:59.566Z,48.40
2018-10-19T04:43:32.954Z,47.33
2018-10-19T04:46:06.470Z,47.17
2018-10-19T04:48:39.903Z,47.27
2018-10-19T04:51:13.410Z,48.43
2018-10-19T04:53:46.833Z,47.67
2018-10-19T04:56:20.294Z,46.93
2018-10-19T04:58:53.781Z,47.67
2018-10-19T05:01:27.228Z,50.77
2018-10-19T05:04:00.644Z,48.70
2018-10-19T05:06:34.269Z,49.27
2018-10-19T05:09:10.278Z,49.03
2018-10-19T05:11:43.690Z,49.40
2018-10-19T05:14:17.162Z,45.93
2018-10-19T05:16:50.510Z,49.03
2018-10-19T05:19:23.924Z,48.90
2018-10-19T05:21:57.331Z,49.23
2018-10-19T05:24:30.811Z,48.70
2018-10-19T05:27:04.268Z,46.83
2018-10-19T05:29:37.671Z,49.10
2018-10-19T05:32:11.148Z,126.30
2018-10-19T05:34:44.548Z,136.93
2018-10-19T05:37:18.007Z,174.80
2018-10-19T05:39:51.620Z,156.07
2018-10-19T05:42:25.151Z,136.33
2018-10-19T05:44:58.589Z,144.57
2018-10-19T05:47:32.035Z,99.53
2018-10-19T05:50:06.469Z,83.67
2018-10-19T05:52:40.193Z,71.57
2018-10-19T05:55:13.695Z,59.33
2018-10-19T05:57:47.168Z,53.80
2018-10-19T06:00:22.744Z,50.53
2018-10-19T06:02:56.215Z,51.63
2018-10-19T06:05:29.673Z,49.30
2018-10-19T06:08:03.212Z,50.17
2018-10-19T06:10:36.711Z,49.87
2018-10-19T06:13:10.172Z,50.37
2018-10-19T06:15:43.820Z,49.83
2018-10-19T06:18:17.284Z,49.80
2018-10-19T06:20:50.707Z,50.93
2018-10-19T06:23:24.155Z,50.67
2018-10-19T06:25:57.668Z,50.47
2018-10-19T06:28:31.327Z,51.53
2018-10-19T06:31:05.100Z,51.77
2018-10-19T06:33:38.552Z,52.70
2018-10-19T06:36:11.936Z,52.67
2018-10-19T06:38:45.476Z,50.97
2018-10-19T06:41:19.008Z,52.07
2018-10-19T06:43:52.388Z,52.97
2018-10-19T06:46:25.763Z,52.70
2018-10-19T06:48:59.262Z,52.73
2018-10-19T06:51:32.654Z,54.87
2018-10-19T06:54:06.165Z,53.97
2018-10-19T06:56:39.568Z,75.37
2018-10-19T06:59:13.159Z,89.93
2018-10-19T07:01:46.444Z,104.50
2018-10-19T07:04:19.871Z,81.20
2018-10-19T07:06:53.357Z,62.33
2018-10-19T07:09:26.763Z,60.17
2018-10-19T07:12:00.216Z,60.30
2018-10-19T07:14:33.637Z,58.53
2018-10-19T07:17:07.091Z,80.43
2018-10-19T07:19:40.501Z,56.93
2018-10-19T07:22:13.931Z,57.03
2018-10-19T07:24:47.436Z,59.33
2018-10-19T07:27:20.859Z,58.00
2018-10-19T07:29:54.283Z,57.50
2018-10-19T07:32:27.722Z,57.63
2018-10-19T07:35:01.157Z,62.77
2018-10-19T07:37:34.611Z,58.43
2018-10-19T07:40:08.050Z,60.53
2018-10-19T07:42:41.480Z,59.07
2018-10-19T07:45:14.896Z,56.33
2018-10-19T07:47:48.476Z,56.73
2018-10-19T07:50:21.886Z,57.03
2018-10-19T07:52:55.336Z,56.37
2018-10-19T07:55:28.740Z,59.50
2018-10-19T07:58:02.168Z,59.07
2018-10-19T08:00:35.629Z,58.13
2018-10-19T08:03:09.014Z,57.53
2018-10-19T08:05:42.425Z,59.20
2018-10-19T08:08:15.870Z,58.17
2018-10-19T08:10:49.284Z,59.27
2018-10-19T08:13:22.715Z,59.23
2018-10-19T08:15:56.116Z,57.43
2018-10-19T08:18:29.528Z,56.70
2018-10-19T08:21:02.977Z,58.77
2018-10-19T08:23:36.397Z,59.33
2018-10-19T08:26:09.821Z,59.80
2018-10-19T08:28:44.291Z,61.47
2018-10-19T08:31:17.716Z,63.77
2018-10-19T08:33:51.137Z,109.20
2018-10-19T08:36:24.536Z,62.40
2018-10-19T08:38:57.963Z,63.20
2018-10-19T08:41:31.468Z,61.37
2018-10-19T08:44:04.915Z,62.20
2018-10-19T08:46:39.257Z,60.93
2018-10-19T08:49:12.988Z,59.50
2018-10-19T08:51:46.383Z,58.33
2018-10-19T08:54:19.810Z,56.03
2018-10-19T08:56:53.237Z,57.83
2018-10-19T08:59:26.679Z,58.47
2018-10-19T09:02:00.103Z,58.40
2018-10-19T09:04:33.531Z,59.03
2018-10-19T09:07:06.983Z,59.07
2018-10-19T09:09:40.412Z,58.33
2018-10-19T09:12:13.808Z,56.77
2018-10-19T09:15:02.260Z,57.40
2018-10-19T09:17:35.688Z,58.87
2018-10-19T09:20:09.150Z,58.10
2018-10-19T09:22:42.576Z,58.87
2018-10-19T09:25:15.989Z,57.60
2018-10-19T09:27:49.401Z,57.87
2018-10-19T09:30:23.656Z,58.60
2018-10-19T09:32:57.144Z,58.70
2018-10-19T09:35:30.558Z,58.07
2018-10-19T09:38:03.952Z,61.10
2018-10-19T09:40:37.355Z,60.70
2018-10-19T09:43:10.817Z,59.53
2018-10-19T09:45:44.199Z,58.37
2018-10-19T09:48:17.963Z,45.93
2018-10-19T09:50:51.371Z,59.10
2018-10-19T09:53:24.797Z,57.50
2018-10-19T09:55:58.241Z,60.10
2018-10-19T09:58:31.647Z,58.43
2018-10-19T10:01:09.616Z,58.23
2018-10-19T10:03:43.055Z,58.77
2018-10-19T10:06:16.473Z,59.10
2018-10-19T10:08:49.904Z,61.13
2018-10-19T10:11:23.406Z,59.23
2018-10-19T10:13:56.906Z,56.90
2018-10-19T10:16:35.512Z,58.77
2018-10-19T10:19:09.318Z,59.03
2018-10-19T10:21:42.706Z,60.47
2018-10-19T10:24:16.136Z,57.78
2018-10-19T10:26:49.543Z,60.60
2018-10-19T10:29:22.955Z,58.83
2018-10-19T10:31:56.405Z,57.53
2018-10-19T10:34:29.823Z,58.20
2018-10-19T10:37:03.254Z,58.53
2018-10-19T10:39:36.687Z,58.37
2018-10-19T10:42:10.095Z,58.42
2018-10-19T10:44:43.514Z,59.53
2018-10-19T10:47:16.935Z,58.55
2018-10-19T10:49:50.407Z,58.57
2018-10-19T10:52:23.828Z,56.18
2018-10-19T10:54:57.282Z,58.08
2018-10-19T10:57:30.701Z,57.90
2018-10-19T11:00:04.196Z,57.58
2018-10-19T11:02:37.603Z,59.40
2018-10-19T11:05:11.044Z,59.27
2018-10-19T11:07:44.592Z,57.43
2018-10-19T11:10:17.991Z,57.23
2018-10-19T11:12:51.407Z,57.93
2018-10-19T11:15:24.828Z,56.80
2018-10-19T11:17:58.255Z,57.43
2018-10-19T11:20:31.655Z,57.62
2018-10-19T11:23:05.310Z,56.98
2018-10-19T11:25:38.717Z,54.80
2018-10-19T11:28:12.236Z,52.85
2018-10-19T11:30:45.664Z,55.17
2018-10-19T11:33:19.048Z,54.18
2018-10-19T11:35:52.457Z,55.30
2018-10-19T11:38:25.895Z,54.90
2018-10-19T11:40:59.294Z,55.65
2018-10-19T11:43:32.747Z,57.73
2018-10-19T11:46:06.329Z,56.77
2018-10-19T11:48:39.739Z,56.92
2018-10-19T11:51:13.164Z,56.28
2018-10-19T11:53:46.587Z,57.67
2018-10-19T11:56:19.991Z,55.30
2018-10-19T11:58:53.413Z,58.20
2018-10-19T12:01:26.811Z,58.83
2018-10-19T12:04:00.264Z,58.15
2018-10-19T12:06:33.681Z,59.48
2018-10-19T12:09:08.813Z,57.50
2018-10-19T12:11:42.202Z,58.85
2018-10-19T12:14:15.656Z,60.20
2018-10-19T12:16:49.218Z,55.30
2018-10-19T12:19:22.492Z,60.80
2018-10-19T12:21:55.886Z,59.00
2018-10-19T12:24:29.311Z,59.33
2018-10-19T12:27:02.878Z,59.90
2018-10-19T12:29:36.233Z,59.63
2018-10-19T12:32:09.863Z,59.30
2018-10-19T12:34:43.284Z,59.38
2018-10-19T12:37:16.827Z,59.15
2018-10-19T12:39:50.630Z,60.17
2018-10-19T12:42:24.039Z,61.83
2018-10-19T12:44:57.533Z,58.08
2018-10-19T12:47:39.895Z,61.10
2018-10-19T12:50:13.343Z,58.38
2018-10-19T12:52:46.747Z,58.70
2018-10-19T12:55:20.180Z,58.48
2018-10-19T12:57:53.592Z,59.35
2018-10-19T13:00:27.026Z,59.98
2018-10-19T13:03:00.451Z,59.13
2018-10-19T13:05:33.867Z,56.92
2018-10-19T13:08:07.282Z,59.93
2018-10-19T13:10:40.700Z,58.52
2018-10-19T13:13:14.154Z,59.00
2018-10-19T13:15:47.535Z,58.70
2018-10-19T13:18:21.055Z,60.17
2018-10-19T13:20:54.523Z,58.15
2018-10-19T13:23:28.083Z,58.87
2018-10-19T13:26:03.068Z,58.40
2018-10-19T13:28:36.993Z,59.98
2018-10-19T13:31:10.432Z,61.08
2018-10-19T13:33:43.843Z,57.20
2018-10-19T13:36:17.258Z,57.03
2018-10-19T13:38:50.715Z,58.90
2018-10-19T13:41:24.179Z,57.38
2018-10-19T13:43:58.001Z,56.88
2018-10-19T13:46:31.481Z,57.30
2018-10-19T13:49:06.411Z,58.28
2018-10-19T13:51:39.859Z,58.08
2018-10-19T13:54:13.255Z,54.75
2018-10-19T13:56:46.666Z,59.30
2018-10-19T13:59:20.060Z,57.48
2018-10-19T14:01:53.474Z,58.68
2018-10-19T14:04:26.903Z,54.35
2018-10-19T14:07:00.303Z,58.23
2018-10-19T14:09:33.731Z,59.05
2018-10-19T14:12:07.171Z,57.33
2018-10-19T14:14:40.626Z,55.38
2018-10-19T14:17:14.167Z,57.38
2018-10-19T14:19:47.554Z,56.68
2018-10-19T14:22:21.009Z,57.45
2018-10-19T14:24:54.427Z,54.38
2018-10-19T14:27:27.870Z,56.37
2018-10-19T14:30:01.283Z,58.13
2018-10-19T14:32:34.851Z,58.45
2018-10-19T14:35:08.885Z,56.70
2018-10-19T14:37:43.414Z,56.33
2018-10-19T14:40:18.564Z,57.93
2018-10-19T14:42:52.016Z,57.05
2018-10-19T14:45:25.468Z,55.52
2018-10-19T14:47:59.036Z,56.58
2018-10-19T14:50:32.936Z,55.50
2018-10-19T14:53:06.527Z,55.45
2018-10-19T14:55:39.960Z,55.30
2018-10-19T14:58:13.658Z,56.50
2018-10-19T15:00:47.140Z,55.83
2018-10-19T15:03:21.633Z,56.08
2018-10-19T15:05:55.139Z,54.65
2018-10-19T15:08:28.619Z,54.90
2018-10-19T15:11:03.109Z,56.35
2018-10-19T15:13:36.714Z,54.90
2018-10-19T15:16:10.208Z,54.05
2018-10-19T15:18:43.641Z,54.70
2018-10-19T15:21:17.182Z,54.38
2018-10-19T15:23:50.660Z,54.73
2018-10-19T15:26:24.230Z,53.95
2018-10-19T15:28:57.879Z,55.55
2018-10-19T15:31:31.842Z,53.33
2018-10-19T15:34:05.311Z,54.95
2018-10-19T15:36:38.777Z,56.90
2018-10-19T15:39:12.794Z,56.25
2018-10-19T15:41:46.238Z,56.13
2018-10-19T15:44:20.447Z,56.77
2018-10-19T15:46:53.919Z,55.28
2018-10-19T15:49:27.573Z,55.03
2018-10-19T15:52:01.262Z,55.08
2018-10-19T15:54:34.836Z,56.60
2018-10-19T15:57:08.365Z,57.25
2018-10-19T15:59:42.742Z,57.60
2018-10-19T16:02:16.673Z,56.33
2018-10-19T16:04:50.467Z,55.45
2018-10-19T16:07:24.228Z,56.33
2018-10-19T16:09:57.720Z,56.88
2018-10-19T16:12:31.155Z,55.55
2018-10-19T16:15:04.976Z,52.83
2018-10-19T16:17:38.524Z,55.85
2018-10-19T16:20:11.963Z,55.12
2018-10-19T16:22:45.387Z,53.55
2018-10-19T16:25:18.774Z,53.40
2018-10-19T16:27:52.199Z,52.83
2018-10-19T16:30:25.611Z,55.50
2018-10-19T16:32:59.081Z,54.73
2018-10-19T16:35:32.464Z,54.45
2018-10-19T16:38:06.955Z,54.40
2018-10-19T16:40:40.348Z,51.98
2018-10-19T16:43:13.760Z,51.55
2018-10-19T16:45:47.172Z,50.95
2018-10-19T16:48:20.607Z,52.23
2018-10-19T16:50:54.050Z,51.05
2018-10-19T16:53:27.519Z,50.63
2018-10-19T16:56:00.899Z,50.85
2018-10-19T16:58:34.428Z,50.15
2018-10-19T17:01:07.853Z,50.90
2018-10-19T17:03:41.276Z,49.23
2018-10-19T17:06:14.816Z,52.00
2018-10-19T17:08:49.159Z,51.42
2018-10-19T17:11:23.167Z,51.00
2018-10-19T17:13:56.598Z,56.63
2018-10-19T17:16:29.999Z,52.70
2018-10-19T17:19:03.411Z,53.02
2018-10-19T17:21:38.419Z,53.85
2018-10-19T17:24:11.893Z,51.63
2018-10-19T17:26:45.383Z,49.25
2018-10-19T17:29:20.280Z,48.02
2018-10-19T17:31:53.704Z,50.78
2018-10-19T17:34:27.100Z,49.70
2018-10-19T17:37:00.531Z,50.83
2018-10-19T17:39:33.956Z,51.73
2018-10-19T17:42:07.460Z,51.88
2018-10-19T17:44:40.898Z,51.08
2018-10-19T17:47:14.410Z,50.03
2018-10-19T17:49:47.819Z,50.60
2018-10-19T17:52:21.267Z,50.30
2018-10-19T17:54:54.695Z,51.08
2018-10-19T17:57:28.136Z,49.30
2018-10-19T18:00:01.563Z,52.60
2018-10-19T18:02:35.025Z,50.30
2018-10-19T18:05:08.900Z,51.05
2018-10-19T18:07:42.292Z,51.25
2018-10-19T18:10:15.723Z,54.00
2018-10-19T18:12:49.163Z,55.65
2018-10-19T18:15:22.821Z,54.65
2018-10-19T18:17:56.287Z,52.98
2018-10-19T18:20:29.739Z,50.73
2018-10-19T18:23:03.301Z,51.50
2018-10-19T18:25:36.628Z,53.00
2018-10-19T18:28:10.054Z,51.23
2018-10-19T18:30:43.479Z,51.63
2018-10-19T18:33:16.933Z,53.28
2018-10-19T18:35:50.340Z,51.92
2018-10-19T18:38:23.849Z,51.80
2018-10-19T18:40:57.287Z,52.78
2018-10-19T18:43:30.733Z,50.33
2018-10-19T18:46:04.176Z,51.15
2018-10-19T18:48:37.804Z,51.33
2018-10-19T18:51:11.219Z,51.58
2018-10-19T18:53:44.708Z,50.43
2018-10-19T18:56:18.291Z,50.03
2018-10-19T18:58:51.776Z,53.85
2018-10-19T19:01:25.192Z,51.48
2018-10-19T19:03:58.607Z,50.85
2018-10-19T19:06:32.011Z,52.20
2018-10-19T19:09:09.778Z,51.23
2018-10-19T19:11:43.200Z,51.98
2018-10-19T19:14:17.830Z,49.40
2018-10-19T19:16:51.242Z,50.30
2018-10-19T19:19:24.672Z,50.58
2018-10-19T19:21:58.251Z,49.75
2018-10-19T19:24:37.404Z,48.90
2018-10-19T19:27:10.870Z,49.38
2018-10-19T19:29:44.309Z,49.58
2018-10-19T19:32:17.784Z,50.00
2018-10-19T19:34:51.271Z,51.18
2018-10-19T19:37:24.667Z,50.50
2018-10-19T19:39:58.295Z,50.23
2018-10-19T19:42:37.060Z,50.35
2018-10-19T19:45:10.538Z,49.95
2018-10-19T19:47:49.261Z,52.88
2018-10-19T19:50:22.727Z,53.20
2018-10-19T19:52:56.256Z,52.90
2018-10-19T19:55:29.651Z,52.75
2018-10-19T19:58:03.084Z,52.93
2018-10-19T20:00:36.506Z,52.73
2018-10-19T20:03:10.047Z,52.40
2018-10-19T20:05:43.502Z,52.20
2018-10-19T20:08:17.008Z,50.67
2018-10-19T20:10:50.403Z,51.42
2018-10-19T20:13:23.886Z,50.15
2018-10-19T20:15:57.448Z,49.67
2018-10-19T20:18:30.936Z,51.02
2018-10-19T20:21:04.756Z,51.05
2018-10-19T20:23:38.188Z,51.42
2018-10-19T20:26:11.681Z,48.92
2018-10-19T20:28:45.032Z,51.77
2018-10-19T20:31:18.439Z,54.45
2018-10-19T20:33:51.871Z,53.25
2018-10-19T20:36:25.339Z,54.15
2018-10-19T20:38:58.730Z,53.42
2018-10-19T20:41:32.175Z,53.70
2018-10-19T20:44:05.644Z,51.88
2018-10-19T20:46:39.113Z,51.73
2018-10-19T20:49:12.535Z,53.17
2018-10-19T20:51:45.963Z,52.35
2018-10-19T20:54:19.425Z,50.92
2018-10-19T20:56:52.852Z,50.88
2018-10-19T20:59:26.264Z,50.70
2018-10-19T21:01:59.724Z,52.90
2018-10-19T21:04:33.148Z,51.58
2018-10-19T21:07:06.584Z,54.40
2018-10-19T21:09:39.984Z,53.52
2018-10-19T21:12:13.412Z,53.65
2018-10-19T21:14:46.833Z,53.45
2018-10-19T21:17:20.264Z,54.05
2018-10-19T21:19:53.679Z,53.20
2018-10-19T21:22:27.127Z,53.17
2018-10-19T21:25:00.558Z,53.58
2018-10-19T21:27:33.998Z,53.10
2018-10-19T21:30:08.823Z,56.05
2018-10-19T21:32:42.354Z,56.60
2018-10-19T21:35:16.261Z,56.77
2018-10-19T21:37:49.610Z,55.67
2018-10-19T21:40:23.022Z,55.30
2018-10-19T21:42:56.433Z,55.73
2018-10-19T21:45:29.861Z,56.80
2018-10-19T21:48:03.284Z,57.35
2018-10-19T21:50:36.716Z,55.65
2018-10-19T21:53:10.200Z,56.13
2018-10-19T21:55:43.566Z,56.40
2018-10-19T21:58:16.967Z,55.90
2018-10-19T22:00:50.444Z,56.68
2018-10-19T22:03:23.856Z,55.15
2018-10-19T22:05:57.287Z,54.63
2018-10-19T22:08:30.718Z,57.05
2018-10-19T22:11:04.315Z,57.58
2018-10-19T22:13:37.683Z,57.33
2018-10-19T22:16:11.086Z,55.10
2018-10-19T22:18:44.487Z,55.58
2018-10-19T22:21:17.903Z,56.42
2018-10-19T22:23:51.308Z,55.23
2018-10-19T22:26:24.727Z,54.10
2018-10-19T22:28:58.170Z,54.38
2018-10-19T22:31:31.639Z,55.30
2018-10-19T22:34:05.163Z,53.28
2018-10-19T22:36:38.581Z,53.78
2018-10-19T22:39:11.983Z,53.28
2018-10-19T22:41:45.391Z,55.30
2018-10-19T22:44:18.800Z,56.92
2018-10-19T22:46:52.255Z,56.63
2018-10-19T22:49:25.687Z,54.55
2018-10-19T22:51:59.120Z,56.18
2018-10-19T22:54:32.536Z,58.15
2018-10-19T22:57:05.973Z,59.00
2018-10-19T22:59:39.366Z,57.58
2018-10-19T23:02:12.800Z,58.10
2018-10-19T23:04:46.203Z,57.95
2018-10-19T23:07:19.651Z,59.67
2018-10-19T23:09:53.060Z,59.93
2018-10-19T23:12:26.479Z,56.18
2018-10-19T23:14:59.868Z,59.08
2018-10-19T23:17:33.356Z,57.98
2018-10-19T23:20:07.620Z,56.40
2018-10-19T23:22:41.055Z,55.33
2018-10-19T23:25:14.547Z,56.18
2018-10-19T23:27:47.891Z,58.68
2018-10-19T23:30:21.319Z,58.90
2018-10-19T23:32:54.736Z,61.50
2018-10-19T23:35:28.143Z,59.33
2018-10-19T23:38:01.564Z,58.75
2018-10-19T23:40:35.014Z,57.05
2018-10-19T23:43:08.484Z,60.55
2018-10-19T23:45:41.947Z,59.25
2018-10-19T23:48:15.380Z,58.52
2018-10-19T23:50:48.783Z,57.05
2018-10-19T23:53:22.205Z,58.98
2018-10-19T23:55:55.594Z,59.67
2018-10-19T23:58:29.015Z,58.70
